createdAt,value
2019-03-11T00:00:59.091Z,96.41
2019-03-11T00:01:59.073Z,96.51
2019-03-11T00:02:59.072Z,96.61
2019-03-11T00:03:59.056Z,96.41
2019-03-11T00:04:59.043Z,96.41
2019-03-11T00:05:59.030Z,96.61
2019-03-11T00:06:59.020Z,96.51
2019-03-11T00:07:59.016Z,96.30
2019-03-11T00:08:59.007Z,96.30
2019-03-11T00:09:58.989Z,95.47
2019-03-11T00:10:58.980Z,95.57
2019-03-11T00:11:58.969Z,95.67
2019-03-11T00:12:58.956Z,95.78
2019-03-11T00:13:58.949Z,95.78
2019-03-11T00:14:58.961Z,95.78
2019-03-11T00:15:58.922Z,96.41
2019-03-11T00:16:58.913Z,96.61
2019-03-11T00:17:58.904Z,96.51
2019-03-11T00:18:58.898Z,96.30
2019-03-11T00:19:58.889Z,95.99
2019-03-11T00:20:58.894Z,96.41
2019-03-11T00:21:58.863Z,95.89
2019-03-11T00:22:58.855Z,95.57
2019-03-11T00:23:58.849Z,96.30
2019-03-11T00:24:58.842Z,96.55
2019-03-11T00:25:58.837Z,96.45
2019-03-11T00:26:58.807Z,96.51
2019-03-11T00:27:58.795Z,95.78
2019-03-11T00:28:58.787Z,95.72
2019-03-11T00:29:58.776Z,95.72
2019-03-11T00:30:58.771Z,95.67
2019-03-11T00:31:58.755Z,95.67
2019-03-11T00:32:58.743Z,95.89
2019-03-11T00:33:58.735Z,95.67
2019-03-11T00:34:58.727Z,95.67
2019-03-11T00:35:58.713Z,94.95
2019-03-11T00:36:58.705Z,95.57
2019-03-11T00:37:58.697Z,95.57
2019-03-11T00:38:58.683Z,95.26
2019-03-11T00:39:58.675Z,95.57
2019-03-11T00:40:58.667Z,95.67
2019-03-11T00:41:58.651Z,95.67
2019-03-11T00:42:58.645Z,95.15
2019-03-11T00:43:58.649Z,95.05
2019-03-11T00:44:58.615Z,95.26
2019-03-11T00:45:58.671Z,95.15
2019-03-11T00:46:58.593Z,95.47
2019-03-11T00:48:02.402Z,94.84
2019-03-11T00:48:58.571Z,95.99
2019-03-11T00:49:58.566Z,95.99
2019-03-11T00:50:58.552Z,95.57
2019-03-11T00:51:58.537Z,94.95
2019-03-11T00:52:58.531Z,95.15
2019-03-11T00:53:58.522Z,95.36
2019-03-11T00:54:58.511Z,94.95
2019-03-11T00:55:58.499Z,95.26
2019-03-11T00:56:58.492Z,94.95
2019-03-11T00:57:58.481Z,94.95
2019-03-11T00:58:58.465Z,95.26
2019-03-11T00:59:58.464Z,94.53
2019-03-11T01:00:58.451Z,93.91
2019-03-11T01:01:58.489Z,94.22
2019-03-11T01:02:58.424Z,94.12
2019-03-11T01:03:58.437Z,94.53
2019-03-11T01:04:58.412Z,94.53
2019-03-11T01:05:58.408Z,94.47
2019-03-11T01:06:58.382Z,94.95
2019-03-11T01:07:58.375Z,95.20
2019-03-11T01:08:58.367Z,94.95
2019-03-11T01:09:58.365Z,94.84
2019-03-11T01:10:58.349Z,94.22
2019-03-11T01:11:58.334Z,94.64
2019-03-11T01:12:58.324Z,94.32
2019-03-11T01:13:58.317Z,94.47
2019-03-11T01:14:58.293Z,94.47
2019-03-11T01:15:58.285Z,94.43
2019-03-11T01:16:58.283Z,94.22
2019-03-11T01:17:58.267Z,94.37
2019-03-11T01:18:58.261Z,94.22
2019-03-11T01:19:58.254Z,94.43
2019-03-11T01:20:58.239Z,94.57
2019-03-11T01:21:58.226Z,94.37
2019-03-11T01:22:58.225Z,94.32
2019-03-11T01:23:58.207Z,94.01
2019-03-11T01:24:58.220Z,94.01
2019-03-11T01:25:58.182Z,94.32
2019-03-11T01:26:58.168Z,94.32
2019-03-11T01:27:58.163Z,94.32
2019-03-11T01:28:58.195Z,94.32
2019-03-11T01:29:58.149Z,94.43
2019-03-11T01:30:58.140Z,94.43
2019-03-11T01:31:58.132Z,94.01
2019-03-11T01:32:58.111Z,94.53
2019-03-11T01:33:58.103Z,94.22
2019-03-11T01:34:58.090Z,94.22
2019-03-11T01:35:58.082Z,94.22
2019-03-11T01:36:58.088Z,94.22
2019-03-11T01:37:58.057Z,94.43
2019-03-11T01:38:58.045Z,94.32
2019-03-11T01:39:58.041Z,94.64
2019-03-11T01:40:58.025Z,94.22
2019-03-11T01:41:58.019Z,93.49
2019-03-11T01:42:58.003Z,93.39
2019-03-11T01:43:57.995Z,93.07
2019-03-11T01:44:57.996Z,94.53
2019-03-11T01:45:57.980Z,94.53
2019-03-11T01:46:57.964Z,93.49
2019-03-11T01:47:57.954Z,93.29
2019-03-11T01:48:57.940Z,93.91
2019-03-11T01:49:57.932Z,94.43
2019-03-11T01:50:57.927Z,94.43
2019-03-11T01:51:57.915Z,94.12
2019-03-11T01:52:57.905Z,93.91
2019-03-11T01:53:57.890Z,93.60
2019-03-11T01:54:57.875Z,93.70
2019-03-11T01:55:57.867Z,93.39
2019-03-11T01:56:57.865Z,93.49
2019-03-11T01:57:57.855Z,93.91
2019-03-11T01:58:57.840Z,93.49
2019-03-11T01:59:57.851Z,92.97
2019-03-11T02:00:57.816Z,94.32
2019-03-11T02:01:57.804Z,93.18
2019-03-11T02:02:57.797Z,93.60
2019-03-11T02:03:57.781Z,93.39
2019-03-11T02:04:57.793Z,94.84
2019-03-11T02:05:57.766Z,94.43
2019-03-11T02:06:57.758Z,93.18
2019-03-11T02:07:57.742Z,94.32
2019-03-11T02:08:57.743Z,94.43
2019-03-11T02:09:57.722Z,94.22
2019-03-11T02:10:57.710Z,94.32
2019-03-11T02:11:57.695Z,94.06
2019-03-11T02:12:57.690Z,94.16
2019-03-11T02:13:57.683Z,94.53
2019-03-11T02:14:57.682Z,94.99
2019-03-11T02:15:57.662Z,94.95
2019-03-11T02:16:57.652Z,95.20
2019-03-11T02:17:57.644Z,94.68
2019-03-11T02:18:57.624Z,94.37
2019-03-11T02:19:57.623Z,94.89
2019-03-11T02:20:57.606Z,95.09
2019-03-11T02:21:57.604Z,95.51
2019-03-11T02:22:57.613Z,95.20
2019-03-11T02:23:57.582Z,95.09
2019-03-11T02:24:57.585Z,96.03
2019-03-11T02:25:57.552Z,95.87
2019-03-11T02:26:57.543Z,95.87
2019-03-11T02:27:57.545Z,95.72
2019-03-11T02:28:57.520Z,95.87
2019-03-11T02:29:57.517Z,95.76
2019-03-11T02:30:57.505Z,95.72
2019-03-11T02:31:57.498Z,95.87
2019-03-11T02:32:57.490Z,95.97
2019-03-11T02:33:57.470Z,95.97
2019-03-11T02:34:57.457Z,96.43
2019-03-11T02:35:57.451Z,96.64
2019-03-11T02:36:57.449Z,96.43
2019-03-11T02:37:57.446Z,96.75
2019-03-11T02:38:57.416Z,96.22
2019-03-11T02:39:57.408Z,96.43
2019-03-11T02:40:57.398Z,96.53
2019-03-11T02:41:57.396Z,96.22
2019-03-11T02:42:57.389Z,96.95
2019-03-11T02:43:57.356Z,97.16
2019-03-11T02:44:57.352Z,97.06
2019-03-11T02:45:57.348Z,97.06
2019-03-11T02:46:57.331Z,97.06
2019-03-11T02:47:57.322Z,97.10
2019-03-11T02:48:57.317Z,97.10
2019-03-11T02:49:57.309Z,97.37
2019-03-11T02:50:57.284Z,97.20
2019-03-11T02:51:57.293Z,97.31
2019-03-11T02:52:57.275Z,97.20
2019-03-11T02:53:57.254Z,97.20
2019-03-11T02:54:57.255Z,97.31
2019-03-11T02:55:57.237Z,97.31
2019-03-11T02:56:57.236Z,98.04
2019-03-11T02:57:57.213Z,97.52
2019-03-11T02:58:57.217Z,97.99
2019-03-11T02:59:57.208Z,97.94
2019-03-11T03:00:57.198Z,98.41
2019-03-11T03:01:57.195Z,98.41
2019-03-11T03:02:57.155Z,97.94
2019-03-11T03:03:57.153Z,97.72
2019-03-11T03:04:57.141Z,97.78
2019-03-11T03:05:57.133Z,98.10
2019-03-11T03:06:57.122Z,98.35
2019-03-11T03:07:57.106Z,98.41
2019-03-11T03:08:57.127Z,98.31
2019-03-11T03:09:57.091Z,97.78
2019-03-11T03:10:57.080Z,98.20
2019-03-11T03:11:57.068Z,98.52
2019-03-11T03:12:57.052Z,98.20
2019-03-11T03:13:57.044Z,97.99
2019-03-11T03:14:57.031Z,98.20
2019-03-11T03:15:57.022Z,97.85
2019-03-11T03:16:57.030Z,98.20
2019-03-11T03:17:57.006Z,98.31
2019-03-11T03:18:56.997Z,98.72
2019-03-11T03:19:56.982Z,98.52
2019-03-11T03:20:56.995Z,98.20
2019-03-11T03:21:56.989Z,98.31
2019-03-11T03:22:56.983Z,98.20
2019-03-11T03:23:56.936Z,98.31
2019-03-11T03:24:56.930Z,98.10
2019-03-11T03:25:56.928Z,97.99
2019-03-11T03:26:56.915Z,98.52
2019-03-11T03:27:56.985Z,98.72
2019-03-11T03:28:56.887Z,98.41
2019-03-11T03:29:56.876Z,99.04
2019-03-11T03:30:56.866Z,98.78
2019-03-11T03:31:57.015Z,98.31
2019-03-11T03:32:56.869Z,98.31
2019-03-11T03:33:56.868Z,98.52
2019-03-11T03:34:56.826Z,98.26
2019-03-11T03:35:56.809Z,98.26
2019-03-11T03:36:56.804Z,98.10
2019-03-11T03:37:56.794Z,97.74
2019-03-11T03:38:56.778Z,97.85
2019-03-11T03:39:56.774Z,97.85
2019-03-11T03:40:56.759Z,98.16
2019-03-11T03:41:56.742Z,98.05
2019-03-11T03:42:56.851Z,97.85
2019-03-11T03:43:56.732Z,97.64
2019-03-11T03:44:56.714Z,97.95
2019-03-11T03:45:56.720Z,97.85
2019-03-11T03:46:56.694Z,97.95
2019-03-11T03:47:56.699Z,98.05
2019-03-11T03:48:56.674Z,97.64
2019-03-11T03:49:56.664Z,97.74
2019-03-11T03:50:56.653Z,97.64
2019-03-11T03:51:56.645Z,97.95
2019-03-11T03:52:56.640Z,97.95
2019-03-11T03:53:56.643Z,98.57
2019-03-11T03:54:56.605Z,98.16
2019-03-11T03:55:56.601Z,98.16
2019-03-11T03:56:56.593Z,98.26
2019-03-11T03:57:56.585Z,98.78
2019-03-11T03:58:56.562Z,98.93
2019-03-11T03:59:56.555Z,98.72
2019-03-11T04:00:56.551Z,98.68
2019-03-11T04:01:56.536Z,98.72
2019-03-11T04:02:56.550Z,98.99
2019-03-11T04:03:56.510Z,98.88
2019-03-11T04:04:56.579Z,98.36
2019-03-11T04:05:56.526Z,98.57
2019-03-11T04:06:56.483Z,98.57
2019-03-11T04:07:56.476Z,98.62
2019-03-11T04:08:56.484Z,99.10
2019-03-11T04:09:56.450Z,99.10
2019-03-11T04:10:56.438Z,98.99
2019-03-11T04:11:56.429Z,98.62
2019-03-11T04:12:56.516Z,98.88
2019-03-11T04:13:56.412Z,98.47
2019-03-11T04:14:56.398Z,98.78
2019-03-11T04:15:56.385Z,99.20
2019-03-11T04:16:56.371Z,98.88
2019-03-11T04:17:56.361Z,98.57
2019-03-11T04:18:56.350Z,98.78
2019-03-11T04:19:56.342Z,98.57
2019-03-11T04:20:56.347Z,98.78
2019-03-11T04:21:56.316Z,98.36
2019-03-11T04:22:56.324Z,98.68
2019-03-11T04:23:56.307Z,98.88
2019-03-11T04:24:56.290Z,98.78
2019-03-11T04:25:56.283Z,98.68
2019-03-11T04:26:56.267Z,98.57
2019-03-11T04:27:56.258Z,98.88
2019-03-11T04:28:56.244Z,98.16
2019-03-11T04:29:56.239Z,98.47
2019-03-11T04:30:56.224Z,98.26
2019-03-11T04:31:56.219Z,98.47
2019-03-11T04:32:56.236Z,98.53
2019-03-11T04:33:56.192Z,98.36
2019-03-11T04:34:56.184Z,98.26
2019-03-11T04:35:56.172Z,98.68
2019-03-11T04:36:56.163Z,98.26
2019-03-11T04:37:56.146Z,98.11
2019-03-11T04:38:56.186Z,98.11
2019-03-11T04:39:56.143Z,98.11
2019-03-11T04:40:56.115Z,98.26
2019-03-11T04:41:56.110Z,98.63
2019-03-11T04:42:56.099Z,98.63
2019-03-11T04:43:56.118Z,98.11
2019-03-11T04:44:56.074Z,98.01
2019-03-11T04:45:56.061Z,98.01
2019-03-11T04:46:56.058Z,98.01
2019-03-11T04:47:56.041Z,97.64
2019-03-11T04:48:56.035Z,97.74
2019-03-11T04:49:56.015Z,97.59
2019-03-11T04:50:56.005Z,97.64
2019-03-11T04:51:55.999Z,98.01
2019-03-11T04:52:55.985Z,98.11
2019-03-11T04:53:56.049Z,98.11
2019-03-11T04:54:55.965Z,98.11
2019-03-11T04:55:55.955Z,98.32
2019-03-11T04:56:55.947Z,97.95
2019-03-11T04:57:55.931Z,98.01
2019-03-11T04:58:55.919Z,98.01
2019-03-11T04:59:55.923Z,97.59
2019-03-11T05:00:55.902Z,97.70
2019-03-11T05:01:55.896Z,97.59
2019-03-11T05:02:55.887Z,97.91
2019-03-11T05:03:55.879Z,98.01
2019-03-11T05:04:55.859Z,97.80
2019-03-11T05:05:55.855Z,97.91
2019-03-11T05:06:55.851Z,98.11
2019-03-11T05:07:55.830Z,97.80
2019-03-11T05:08:55.818Z,98.01
2019-03-11T05:09:55.813Z,97.59
2019-03-11T05:10:55.805Z,97.80
2019-03-11T05:11:55.794Z,97.59
2019-03-11T05:12:55.776Z,98.11
2019-03-11T05:13:55.775Z,97.70
2019-03-11T05:14:55.760Z,97.80
2019-03-11T05:15:55.749Z,97.70
2019-03-11T05:16:55.742Z,97.65
2019-03-11T05:17:55.736Z,97.34
2019-03-11T05:18:55.711Z,97.28
2019-03-11T05:19:55.709Z,96.86
2019-03-11T05:20:55.690Z,96.82
2019-03-11T05:21:55.685Z,96.82
2019-03-11T05:22:55.670Z,96.41
2019-03-11T05:23:55.659Z,96.30
2019-03-11T05:24:55.655Z,96.72
2019-03-11T05:25:55.643Z,96.41
2019-03-11T05:26:55.627Z,96.51
2019-03-11T05:27:55.618Z,96.72
2019-03-11T05:28:55.618Z,96.51
2019-03-11T05:29:55.601Z,96.30
2019-03-11T05:30:55.587Z,96.41
2019-03-11T05:31:55.573Z,95.67
2019-03-11T05:32:55.573Z,95.89
2019-03-11T05:33:55.560Z,96.41
2019-03-11T05:34:55.553Z,95.67
2019-03-11T05:35:55.532Z,95.57
2019-03-11T05:36:55.525Z,95.15
2019-03-11T05:37:55.513Z,95.26
2019-03-11T05:38:55.504Z,94.95
2019-03-11T05:39:55.493Z,95.05
2019-03-11T05:40:55.489Z,95.47
2019-03-11T05:41:55.469Z,94.74
2019-03-11T05:42:55.474Z,94.32
2019-03-11T05:43:55.449Z,94.22
2019-03-11T05:44:55.440Z,94.43
2019-03-11T05:45:55.433Z,94.43
2019-03-11T05:46:55.415Z,94.64
2019-03-11T05:47:55.418Z,94.22
2019-03-11T05:48:55.397Z,94.12
2019-03-11T05:49:55.394Z,94.32
2019-03-11T05:50:55.381Z,94.43
2019-03-11T05:51:55.374Z,94.43
2019-03-11T05:52:55.352Z,94.43
2019-03-11T05:53:55.339Z,94.53
2019-03-11T05:54:55.329Z,93.60
2019-03-11T05:55:55.434Z,92.97
2019-03-11T05:56:55.308Z,93.03
2019-03-11T05:57:55.321Z,93.24
2019-03-11T05:58:55.284Z,93.03
2019-03-11T05:59:55.279Z,93.80
2019-03-11T06:00:55.267Z,93.35
2019-03-11T06:01:55.269Z,93.35
2019-03-11T06:02:55.250Z,93.45
2019-03-11T06:03:55.230Z,93.35
2019-03-11T06:04:55.225Z,93.24
2019-03-11T06:05:55.211Z,92.82
2019-03-11T06:06:55.214Z,93.29
2019-03-11T06:07:55.195Z,93.24
2019-03-11T06:08:55.183Z,93.45
2019-03-11T06:09:55.170Z,93.66
2019-03-11T06:10:55.161Z,93.35
2019-03-11T06:11:55.157Z,92.82
2019-03-11T06:12:55.145Z,92.97
2019-03-11T06:13:55.136Z,92.97
2019-03-11T06:14:55.119Z,95.28
2019-03-11T06:15:55.107Z,94.34
2019-03-11T06:16:55.096Z,93.20
2019-03-11T06:17:55.083Z,93.41
2019-03-11T06:18:55.096Z,92.88
2019-03-11T06:19:55.063Z,92.47
2019-03-11T06:20:55.054Z,92.84
2019-03-11T06:21:55.035Z,93.05
2019-03-11T06:22:55.025Z,92.32
2019-03-11T06:23:55.043Z,92.74
2019-03-11T06:24:55.036Z,91.91
2019-03-11T06:25:55.008Z,91.70
2019-03-11T06:26:54.985Z,91.49
2019-03-11T06:27:54.988Z,91.08
2019-03-11T06:28:54.997Z,92.26
2019-03-11T06:29:54.955Z,92.26
2019-03-11T06:30:54.958Z,92.01
2019-03-11T06:31:54.946Z,91.70
2019-03-11T06:32:54.931Z,91.22
2019-03-11T06:33:54.909Z,91.80
2019-03-11T06:34:54.904Z,91.95
2019-03-11T06:35:54.889Z,91.28
2019-03-11T06:36:54.881Z,90.87
2019-03-11T06:37:54.875Z,90.66
2019-03-11T06:39:04.977Z,90.81
2019-03-11T06:39:55.850Z,90.81
2019-03-11T06:40:54.846Z,91.22
2019-03-11T06:41:54.837Z,91.64
2019-03-11T06:42:54.824Z,91.22
2019-03-11T06:43:54.799Z,91.02
2019-03-11T06:44:54.785Z,91.28
2019-03-11T06:45:54.780Z,91.12
2019-03-11T06:46:54.770Z,91.53
2019-03-11T06:47:54.782Z,90.91
2019-03-11T06:48:54.749Z,90.97
2019-03-11T06:49:54.739Z,90.81
2019-03-11T06:50:54.730Z,91.49
2019-03-11T06:51:54.721Z,91.49
2019-03-11T06:52:54.703Z,90.50
2019-03-11T06:53:54.699Z,89.83
2019-03-11T06:54:54.692Z,90.14
2019-03-11T06:55:54.669Z,90.56
2019-03-11T06:56:54.659Z,89.62
2019-03-11T06:57:54.662Z,89.69
2019-03-11T06:58:54.645Z,89.23
2019-03-11T06:59:54.644Z,89.34
2019-03-11T07:00:54.625Z,88.82
2019-03-11T07:01:54.621Z,88.96
2019-03-11T07:02:54.601Z,88.65
2019-03-11T07:03:54.597Z,89.00
2019-03-11T07:04:54.648Z,88.90
2019-03-11T07:05:54.609Z,89.17
2019-03-11T07:06:54.560Z,89.79
2019-03-11T07:07:54.547Z,89.37
2019-03-11T07:08:54.535Z,89.17
2019-03-11T07:09:54.527Z,89.34
2019-03-11T07:10:54.535Z,88.82
2019-03-11T07:11:54.508Z,88.92
2019-03-11T07:12:54.499Z,88.82
2019-03-11T07:13:54.477Z,88.09
2019-03-11T07:14:54.473Z,88.88
2019-03-11T07:15:54.465Z,87.78
2019-03-11T07:16:54.467Z,88.46
2019-03-11T07:17:54.443Z,86.49
2019-03-11T07:18:54.435Z,85.83
2019-03-11T07:19:54.413Z,85.06
2019-03-11T07:20:54.409Z,85.69
2019-03-11T07:21:54.402Z,84.61
2019-03-11T07:22:54.487Z,84.72
2019-03-11T07:23:54.377Z,84.33
2019-03-11T07:24:54.367Z,83.50
2019-03-11T07:25:54.351Z,81.43
2019-03-11T07:26:54.341Z,82.09
2019-03-11T07:27:54.334Z,82.60
2019-03-11T07:28:54.317Z,82.67
2019-03-11T07:29:54.313Z,83.09
2019-03-11T07:30:54.302Z,83.02
2019-03-11T07:31:54.293Z,83.68
2019-03-11T07:32:54.282Z,84.55
2019-03-11T07:33:54.272Z,84.44
2019-03-11T07:34:54.259Z,84.37
2019-03-11T07:35:54.262Z,83.29
2019-03-11T07:36:54.275Z,81.11
2019-03-11T07:37:54.245Z,79.08
2019-03-11T07:38:54.219Z,75.84
2019-03-11T07:39:54.217Z,76.18
2019-03-11T07:40:54.215Z,73.09
2019-03-11T07:41:54.195Z,68.51
2019-03-11T07:42:54.175Z,67.16
2019-03-11T07:43:54.165Z,70.83
2019-03-11T07:44:54.157Z,74.74
2019-03-11T07:45:54.142Z,75.43
2019-03-11T07:46:54.188Z,77.15
2019-03-11T07:47:54.117Z,79.39
2019-03-11T07:48:54.105Z,80.94
2019-03-11T07:49:54.098Z,82.15
2019-03-11T07:50:54.091Z,82.95
2019-03-11T07:51:54.093Z,83.78
2019-03-11T07:52:54.063Z,84.44
2019-03-11T07:53:54.055Z,85.38
2019-03-11T07:54:54.046Z,85.42
2019-03-11T07:55:54.037Z,86.15
2019-03-11T07:56:54.036Z,85.21
2019-03-11T07:57:54.077Z,85.83
2019-03-11T07:58:54.011Z,85.42
2019-03-11T07:59:53.991Z,84.94
2019-03-11T08:00:54.416Z,86.08
2019-03-11T08:01:53.977Z,86.02
2019-03-11T08:02:53.954Z,85.77
2019-03-11T08:03:53.968Z,86.70
2019-03-11T08:04:53.943Z,86.95
2019-03-11T08:05:53.925Z,86.95
2019-03-11T08:06:53.913Z,86.80
2019-03-11T08:07:53.977Z,86.18
2019-03-11T08:08:53.916Z,85.35
2019-03-11T08:09:53.885Z,85.56
2019-03-11T08:10:53.876Z,86.08
2019-03-11T08:11:53.863Z,86.08
2019-03-11T08:12:53.856Z,85.56
2019-03-11T08:13:53.847Z,85.77
2019-03-11T08:14:53.827Z,87.22
2019-03-11T08:15:53.823Z,85.66
2019-03-11T08:16:53.819Z,85.35
2019-03-11T08:17:54.294Z,85.50
2019-03-11T08:18:53.784Z,86.08
2019-03-11T08:19:53.773Z,84.46
2019-03-11T08:20:53.815Z,84.56
2019-03-11T08:21:53.755Z,85.39
2019-03-11T08:22:53.746Z,86.02
2019-03-11T08:23:53.732Z,86.80
2019-03-11T08:24:53.725Z,84.46
2019-03-11T08:25:53.746Z,84.73
2019-03-11T08:26:53.721Z,85.39
2019-03-11T08:27:53.689Z,85.19
2019-03-11T08:28:53.685Z,85.39
2019-03-11T08:29:53.730Z,86.43
2019-03-11T08:30:53.666Z,87.12
2019-03-11T08:31:53.651Z,86.49
2019-03-11T08:32:53.635Z,86.29
2019-03-11T08:33:53.623Z,85.39
2019-03-11T08:34:53.636Z,85.71
2019-03-11T08:35:53.613Z,85.91
2019-03-11T08:36:53.593Z,85.77
2019-03-11T08:37:53.587Z,84.56
2019-03-11T08:38:53.593Z,84.77
2019-03-11T08:39:53.628Z,85.39
2019-03-11T08:40:53.553Z,85.39
2019-03-11T08:41:53.540Z,85.50
2019-03-11T08:42:53.529Z,85.50
2019-03-11T08:43:53.531Z,85.50
2019-03-11T08:44:53.505Z,85.97
2019-03-11T08:45:53.554Z,86.12
2019-03-11T08:46:53.491Z,85.56
2019-03-11T08:47:53.475Z,84.67
2019-03-11T08:48:53.467Z,84.42
2019-03-11T08:49:53.473Z,84.56
2019-03-11T08:50:53.450Z,85.04
2019-03-11T08:51:53.446Z,85.77
2019-03-11T08:52:53.427Z,85.39
2019-03-11T08:53:53.419Z,85.60
2019-03-11T08:54:53.405Z,84.15
2019-03-11T08:55:53.393Z,84.25
2019-03-11T08:56:53.380Z,84.25
2019-03-11T08:57:53.375Z,84.77
2019-03-11T08:58:53.375Z,84.46
2019-03-11T08:59:53.353Z,84.67
2019-03-11T09:00:53.341Z,85.60
2019-03-11T09:01:53.327Z,85.50
2019-03-11T09:02:53.325Z,85.56
2019-03-11T09:03:53.308Z,85.60
2019-03-11T09:04:53.305Z,84.67
2019-03-11T09:05:53.284Z,84.31
2019-03-11T09:06:53.275Z,84.56
2019-03-11T09:07:53.268Z,84.73
2019-03-11T09:08:53.259Z,84.05
2019-03-11T09:09:53.250Z,83.90
2019-03-11T09:10:53.237Z,84.11
2019-03-11T09:11:53.218Z,84.21
2019-03-11T09:12:53.240Z,85.46
2019-03-11T09:13:53.197Z,85.29
2019-03-11T09:14:53.191Z,85.56
2019-03-11T09:15:53.184Z,85.25
2019-03-11T09:16:53.169Z,84.63
2019-03-11T09:17:53.161Z,84.52
2019-03-11T09:18:53.149Z,84.73
2019-03-11T09:19:53.137Z,84.42
2019-03-11T09:20:53.131Z,84.00
2019-03-11T09:21:53.124Z,83.69
2019-03-11T09:22:53.108Z,84.21
2019-03-11T09:23:53.091Z,84.31
2019-03-11T09:24:53.086Z,83.90
2019-03-11T09:25:53.083Z,83.80
2019-03-11T09:26:53.065Z,83.69
2019-03-11T09:27:53.058Z,84.21
2019-03-11T09:28:53.040Z,84.11
2019-03-11T09:29:53.031Z,84.11
2019-03-11T09:30:53.042Z,84.31
2019-03-11T09:31:53.011Z,84.11
2019-03-11T09:32:53.077Z,83.73
2019-03-11T09:33:53.006Z,83.90
2019-03-11T09:34:52.977Z,83.59
2019-03-11T09:35:52.969Z,83.38
2019-03-11T09:36:52.959Z,83.17
2019-03-11T09:37:52.949Z,83.17
2019-03-11T09:38:52.974Z,83.69
2019-03-11T09:39:52.923Z,83.69
2019-03-11T09:40:52.911Z,83.55
2019-03-11T09:41:52.905Z,83.14
2019-03-11T09:42:52.889Z,82.82
2019-03-11T09:43:52.887Z,82.79
2019-03-11T09:44:52.878Z,83.51
2019-03-11T09:45:52.864Z,83.37
2019-03-11T09:46:52.855Z,82.03
2019-03-11T09:47:52.849Z,82.23
2019-03-11T09:48:52.845Z,82.23
2019-03-11T09:49:52.824Z,81.71
2019-03-11T09:50:52.811Z,80.57
2019-03-11T09:51:52.805Z,79.33
2019-03-11T09:52:52.791Z,80.68
2019-03-11T09:53:52.780Z,78.71
2019-03-11T09:54:52.768Z,78.71
2019-03-11T09:55:52.767Z,78.92
2019-03-11T09:56:52.761Z,79.02
2019-03-11T09:57:52.733Z,82.13
2019-03-11T09:58:52.723Z,79.60
2019-03-11T09:59:52.799Z,77.95
2019-03-11T10:00:52.700Z,78.36
2019-03-11T10:01:52.707Z,77.43
2019-03-11T10:02:53.580Z,78.36
2019-03-11T10:03:52.665Z,78.05
2019-03-11T10:04:52.662Z,77.81
2019-03-11T10:05:52.653Z,77.91
2019-03-11T10:06:52.635Z,77.95
2019-03-11T10:07:52.699Z,77.91
2019-03-11T10:08:52.620Z,78.02
2019-03-11T10:09:52.607Z,78.57
2019-03-11T10:10:52.591Z,78.88
2019-03-11T10:11:52.583Z,79.02
2019-03-11T10:12:52.580Z,78.16
2019-03-11T10:13:52.569Z,79.30
2019-03-11T10:14:52.553Z,80.22
2019-03-11T10:15:52.542Z,80.47
2019-03-11T10:16:52.533Z,80.26
2019-03-11T10:17:52.561Z,80.47
2019-03-11T10:18:52.519Z,81.51
2019-03-11T10:19:52.492Z,81.61
2019-03-11T10:20:52.487Z,81.61
2019-03-11T10:21:52.479Z,82.23
2019-03-11T10:22:52.475Z,81.09
2019-03-11T10:23:52.467Z,81.13
2019-03-11T10:24:52.467Z,82.48
2019-03-11T10:25:52.440Z,82.27
2019-03-11T10:26:52.435Z,82.58
2019-03-11T10:27:52.429Z,82.37
2019-03-11T10:28:52.409Z,82.37
2019-03-11T10:29:52.403Z,83.10
2019-03-11T10:30:52.377Z,83.26
2019-03-11T10:31:52.381Z,83.10
2019-03-11T10:32:52.362Z,82.54
2019-03-11T10:33:52.350Z,81.47
2019-03-11T10:34:52.375Z,80.22
2019-03-11T10:35:52.332Z,79.05
2019-03-11T10:36:52.331Z,78.60
2019-03-11T10:37:52.328Z,78.08
2019-03-11T10:38:52.297Z,77.94
2019-03-11T10:39:52.311Z,78.25
2019-03-11T10:40:52.287Z,77.98
2019-03-11T10:41:52.286Z,77.01
2019-03-11T10:42:52.254Z,76.90
2019-03-11T10:43:52.246Z,76.35
2019-03-11T10:44:52.223Z,75.74
2019-03-11T10:45:52.221Z,76.56
2019-03-11T10:46:52.216Z,75.05
2019-03-11T10:47:52.226Z,76.60
2019-03-11T10:48:52.198Z,76.98
2019-03-11T10:49:52.184Z,76.18
2019-03-11T10:50:52.300Z,75.46
2019-03-11T10:51:52.161Z,76.84
2019-03-11T10:52:52.149Z,76.60
2019-03-11T10:53:52.149Z,76.70
2019-03-11T10:54:52.124Z,76.15
2019-03-11T10:55:52.107Z,76.01
2019-03-11T10:56:52.120Z,74.98
2019-03-11T10:57:52.103Z,75.22
2019-03-11T10:58:52.088Z,74.40
2019-03-11T10:59:52.070Z,74.12
2019-03-11T11:00:52.071Z,74.12
2019-03-11T11:01:52.045Z,74.77
2019-03-11T11:02:52.038Z,75.74
2019-03-11T11:03:52.037Z,76.26
2019-03-11T11:04:52.028Z,77.22
2019-03-11T11:05:52.005Z,77.22
2019-03-11T11:06:52.002Z,77.74
2019-03-11T11:07:51.981Z,77.26
2019-03-11T11:08:51.972Z,76.95
2019-03-11T11:09:51.972Z,78.33
2019-03-11T11:10:51.946Z,80.33
2019-03-11T11:11:51.942Z,80.85
2019-03-11T11:12:51.924Z,81.57
2019-03-11T11:13:51.942Z,81.88
2019-03-11T11:14:51.906Z,82.92
2019-03-11T11:15:51.901Z,83.26
2019-03-11T11:16:51.881Z,83.54
2019-03-11T11:17:51.871Z,83.58
2019-03-11T11:18:51.873Z,84.37
2019-03-11T11:20:02.614Z,85.40
2019-03-11T11:20:52.840Z,85.19
2019-03-11T11:21:51.855Z,85.30
2019-03-11T11:22:51.817Z,84.27
2019-03-11T11:23:51.820Z,84.47
2019-03-11T11:24:51.793Z,83.95
2019-03-11T11:25:51.785Z,83.99
2019-03-11T11:26:51.779Z,83.89
2019-03-11T11:27:51.771Z,84.51
2019-03-11T11:28:51.754Z,85.34
2019-03-11T11:29:51.744Z,85.34
2019-03-11T11:30:51.742Z,84.09
2019-03-11T11:31:51.835Z,85.34
2019-03-11T11:32:51.716Z,85.24
2019-03-11T11:33:51.707Z,84.61
2019-03-11T11:34:51.690Z,84.82
2019-03-11T11:35:51.680Z,84.30
2019-03-11T11:36:51.671Z,84.51
2019-03-11T11:37:51.670Z,85.27
2019-03-11T11:38:51.663Z,85.79
2019-03-11T11:39:51.630Z,86.00
2019-03-11T11:40:51.623Z,86.62
2019-03-11T11:41:51.613Z,86.97
2019-03-11T11:42:51.600Z,86.66
2019-03-11T11:43:51.603Z,86.55
2019-03-11T11:44:51.581Z,87.07
2019-03-11T11:45:51.570Z,87.18
2019-03-11T11:46:51.573Z,87.32
2019-03-11T11:47:51.550Z,87.43
2019-03-11T11:48:51.543Z,87.53
2019-03-11T11:49:51.537Z,87.53
2019-03-11T11:50:51.515Z,88.57
2019-03-11T11:51:51.515Z,88.88
2019-03-11T11:52:51.494Z,89.61
2019-03-11T11:53:51.480Z,88.82
2019-03-11T11:54:51.484Z,89.29
2019-03-11T11:55:57.771Z,89.19
2019-03-11T11:56:52.461Z,89.44
2019-03-11T11:57:51.459Z,88.82
2019-03-11T11:58:51.440Z,89.54
2019-03-11T11:59:54.272Z,89.23
2019-03-11T12:00:51.420Z,89.23
2019-03-11T12:01:51.401Z,89.65
2019-03-11T12:02:51.396Z,89.44
2019-03-11T12:03:51.379Z,90.12
2019-03-11T12:04:51.381Z,90.27
2019-03-11T12:05:51.358Z,90.06
2019-03-11T12:06:51.362Z,90.17
2019-03-11T12:07:51.337Z,90.17
2019-03-11T12:08:51.339Z,90.17
2019-03-11T12:09:51.341Z,90.89
2019-03-11T12:10:51.319Z,91.20
2019-03-11T12:11:51.299Z,91.41
2019-03-11T12:12:51.299Z,91.00
2019-03-11T12:13:51.276Z,91.93
2019-03-11T12:14:51.257Z,92.03
2019-03-11T12:15:51.264Z,92.30
2019-03-11T12:16:51.245Z,92.10
2019-03-11T12:17:51.242Z,90.89
2019-03-11T12:18:51.247Z,90.85
2019-03-11T12:19:51.215Z,90.33
2019-03-11T12:20:51.223Z,90.75
2019-03-11T12:21:51.194Z,91.16
2019-03-11T12:22:51.176Z,90.91
2019-03-11T12:23:51.173Z,91.64
2019-03-11T12:24:51.154Z,91.12
2019-03-11T12:25:51.174Z,90.50
2019-03-11T12:26:51.138Z,90.91
2019-03-11T12:27:54.109Z,91.22
2019-03-11T12:28:51.114Z,89.46
2019-03-11T12:29:51.109Z,88.84
2019-03-11T12:30:51.090Z,88.84
2019-03-11T12:31:51.082Z,88.98
2019-03-11T12:32:51.104Z,89.25
2019-03-11T12:33:51.061Z,89.46
2019-03-11T12:34:51.073Z,89.77
2019-03-11T12:35:51.048Z,89.87
2019-03-11T12:36:51.021Z,89.46
2019-03-11T12:37:51.018Z,89.15
2019-03-11T12:38:51.013Z,89.52
2019-03-11T12:39:51.005Z,90.14
2019-03-11T12:40:51.003Z,90.04
2019-03-11T12:41:50.975Z,89.77
2019-03-11T12:42:50.979Z,88.79
2019-03-11T12:43:50.973Z,88.69
2019-03-11T12:44:53.569Z,87.04
2019-03-11T12:45:50.946Z,87.04
2019-03-11T12:46:50.927Z,87.38
2019-03-11T12:47:50.917Z,87.35
2019-03-11T12:48:50.914Z,87.04
2019-03-11T12:49:50.892Z,86.68
2019-03-11T12:50:50.875Z,86.52
2019-03-11T12:51:50.879Z,87.10
2019-03-11T12:52:50.894Z,86.85